sensor_id;sensor_type;location;lat;lon;timestamp;temperature;humidity
65460;DHT22;52058;49.822;6.754;2023-04-06T00:01:51;0.36;91.72
65460;DHT22;52058;49.822;6.754;2023-04-06T00:04:18;0.33;91.73
65460;DHT22;52058;49.822;6.754;2023-04-06T00:06:44;0.23;91.89
65460;DHT22;52058;49.822;6.754;2023-04-06T00:09:11;0.22;91.78
65460;DHT22;52058;49.822;6.754;2023-04-06T00:11:37;0.21;91.79
65460;DHT22;52058;49.822;6.754;2023-04-06T00:14:04;0.13;91.91
65460;DHT22;52058;49.822;6.754;2023-04-06T00:16:31;0.13;92.16
65460;DHT22;52058;49.822;6.754;2023-04-06T00:18:59;0.09;92.40
65460;DHT22;52058;49.822;6.754;2023-04-06T00:21:25;0.13;92.26
65460;DHT22;52058;49.822;6.754;2023-04-06T00:23:52;0.09;92.36
65460;DHT22;52058;49.822;6.754;2023-04-06T00:26:18;0.08;92.51
65460;DHT22;52058;49.822;6.754;2023-04-06T00:28:45;0.09;92.48
65460;DHT22;52058;49.822;6.754;2023-04-06T00:31:11;0.02;92.54
65460;DHT22;52058;49.822;6.754;2023-04-06T00:33:38;0.05;92.44
65460;DHT22;52058;49.822;6.754;2023-04-06T00:36:06;0.05;92.65
65460;DHT22;52058;49.822;6.754;2023-04-06T00:38:33;-0.02;92.84
65460;DHT22;52058;49.822;6.754;2023-04-06T00:41:00;-0.01;92.58
65460;DHT22;52058;49.822;6.754;2023-04-06T00:43:26;-0.02;92.57
65460;DHT22;52058;49.822;6.754;2023-04-06T00:45:53;-0.08;92.72
65460;DHT22;52058;49.822;6.754;2023-04-06T00:48:20;-0.15;92.73
65460;DHT22;52058;49.822;6.754;2023-04-06T00:50:46;-0.17;92.77
65460;DHT22;52058;49.822;6.754;2023-04-06T00:53:14;-0.16;92.65
65460;DHT22;52058;49.822;6.754;2023-04-06T00:55:41;-0.15;92.67
65460;DHT22;52058;49.822;6.754;2023-04-06T00:58:08;-0.10;92.71
65460;DHT22;52058;49.822;6.754;2023-04-06T01:00:34;-0.13;92.79
65460;DHT22;52058;49.822;6.754;2023-04-06T01:03:01;-0.16;92.67
65460;DHT22;52058;49.822;6.754;2023-04-06T01:05:28;-0.23;92.82
65460;DHT22;52058;49.822;6.754;2023-04-06T01:07:55;-0.29;92.86
65460;DHT22;52058;49.822;6.754;2023-04-06T01:10:28;-0.26;93.03
65460;DHT22;52058;49.822;6.754;2023-04-06T01:12:54;-0.29;93.10
65460;DHT22;52058;49.822;6.754;2023-04-06T01:15:21;-0.33;93.46
65460;DHT22;52058;49.822;6.754;2023-04-06T01:17:48;-0.34;93.44
65460;DHT22;52058;49.822;6.754;2023-04-06T01:20:14;-0.33;93.35
65460;DHT22;52058;49.822;6.754;2023-04-06T01:22:42;-0.36;93.28
65460;DHT22;52058;49.822;6.754;2023-04-06T01:25:10;-0.30;93.41
65460;DHT22;52058;49.822;6.754;2023-04-06T01:27:36;-0.40;93.23
65460;DHT22;52058;49.822;6.754;2023-04-06T01:30:04;-0.44;93.41
65460;DHT22;52058;49.822;6.754;2023-04-06T01:32:31;-0.41;93.52
65460;DHT22;52058;49.822;6.754;2023-04-06T01:34:57;-0.52;93.44
65460;DHT22;52058;49.822;6.754;2023-04-06T01:37:24;-0.43;93.48
65460;DHT22;52058;49.822;6.754;2023-04-06T01:39:52;-0.43;93.37
65460;DHT22;52058;49.822;6.754;2023-04-06T01:42:19;-0.46;93.42
65460;DHT22;52058;49.822;6.754;2023-04-06T01:44:45;-0.56;93.44
65460;DHT22;52058;49.822;6.754;2023-04-06T01:47:12;-0.52;93.37
65460;DHT22;52058;49.822;6.754;2023-04-06T01:49:38;-0.50;93.30
65460;DHT22;52058;49.822;6.754;2023-04-06T01:52:05;-0.57;93.33
65460;DHT22;52058;49.822;6.754;2023-04-06T01:54:32;-0.57;93.40
65460;DHT22;52058;49.822;6.754;2023-04-06T01:56:59;-0.67;93.71
65460;DHT22;52058;49.822;6.754;2023-04-06T01:59:26;-0.64;93.74
65460;DHT22;52058;49.822;6.754;2023-04-06T02:01:52;-0.68;93.75
65460;DHT22;52058;49.822;6.754;2023-04-06T02:04:19;-0.70;93.65
65460;DHT22;52058;49.822;6.754;2023-04-06T02:06:46;-0.71;93.71
65460;DHT22;52058;49.822;6.754;2023-04-06T02:09:13;-0.66;93.68
65460;DHT22;52058;49.822;6.754;2023-04-06T02:11:40;-0.71;93.78
65460;DHT22;52058;49.822;6.754;2023-04-06T02:14:08;-0.68;93.95
65460;DHT22;52058;49.822;6.754;2023-04-06T02:16:34;-0.66;93.79
65460;DHT22;52058;49.822;6.754;2023-04-06T02:19:01;-0.64;93.60
65460;DHT22;52058;49.822;6.754;2023-04-06T02:21:27;-0.74;93.85
65460;DHT22;52058;49.822;6.754;2023-04-06T02:23:55;-0.75;94.09
65460;DHT22;52058;49.822;6.754;2023-04-06T02:26:21;-0.78;94.00
65460;DHT22;52058;49.822;6.754;2023-04-06T02:28:48;-0.80;94.10
65460;DHT22;52058;49.822;6.754;2023-04-06T02:31:16;-0.77;94.19
65460;DHT22;52058;49.822;6.754;2023-04-06T02:33:43;-0.81;94.18
65460;DHT22;52058;49.822;6.754;2023-04-06T02:36:09;-0.81;94.26
65460;DHT22;52058;49.822;6.754;2023-04-06T02:38:36;-0.81;94.22
65460;DHT22;52058;49.822;6.754;2023-04-06T02:41:02;-0.81;94.09
65460;DHT22;52058;49.822;6.754;2023-04-06T02:43:29;-0.85;94.37
65460;DHT22;52058;49.822;6.754;2023-04-06T02:45:56;-0.84;94.27
65460;DHT22;52058;49.822;6.754;2023-04-06T02:48:24;-0.85;94.25
65460;DHT22;52058;49.822;6.754;2023-04-06T02:50:50;-0.83;94.09
65460;DHT22;52058;49.822;6.754;2023-04-06T02:53:17;-0.83;94.22
65460;DHT22;52058;49.822;6.754;2023-04-06T02:55:43;-0.84;94.00
65460;DHT22;52058;49.822;6.754;2023-04-06T02:58:10;-0.92;94.24
65460;DHT22;52058;49.822;6.754;2023-04-06T03:00:37;-0.92;94.23
65460;DHT22;52058;49.822;6.754;2023-04-06T03:03:03;-0.98;94.44
65460;DHT22;52058;49.822;6.754;2023-04-06T03:05:31;-0.99;94.55
65460;DHT22;52058;49.822;6.754;2023-04-06T03:07:58;-1.01;94.57
65460;DHT22;52058;49.822;6.754;2023-04-06T03:10:24;-0.98;94.69
65460;DHT22;52058;49.822;6.754;2023-04-06T03:12:51;-1.05;94.78
65460;DHT22;52058;49.822;6.754;2023-04-06T03:15:18;-0.94;94.67
65460;DHT22;52058;49.822;6.754;2023-04-06T03:17:44;-0.98;94.68
65460;DHT22;52058;49.822;6.754;2023-04-06T03:20:11;-0.97;94.59
65460;DHT22;52058;49.822;6.754;2023-04-06T03:22:39;-0.97;94.43
65460;DHT22;52058;49.822;6.754;2023-04-06T03:25:06;-0.99;94.41
65460;DHT22;52058;49.822;6.754;2023-04-06T03:27:33;-0.95;94.47
65460;DHT22;52058;49.822;6.754;2023-04-06T03:29:59;-1.04;94.65
65460;DHT22;52058;49.822;6.754;2023-04-06T03:32:26;-1.02;94.72
65460;DHT22;52058;49.822;6.754;2023-04-06T03:34:53;-0.99;94.53
65460;DHT22;52058;49.822;6.754;2023-04-06T03:37:19;-0.98;94.60
65460;DHT22;52058;49.822;6.754;2023-04-06T03:39:47;-1.02;94.46
65460;DHT22;52058;49.822;6.754;2023-04-06T03:42:14;-1.06;94.53
65460;DHT22;52058;49.822;6.754;2023-04-06T03:44:40;-1.13;94.79
65460;DHT22;52058;49.822;6.754;2023-04-06T03:47:07;-1.09;94.72
65460;DHT22;52058;49.822;6.754;2023-04-06T03:49:34;-1.12;94.81
65460;DHT22;52058;49.822;6.754;2023-04-06T03:52:00;-1.18;94.82
65460;DHT22;52058;49.822;6.754;2023-04-06T03:54:27;-1.18;94.92
65460;DHT22;52058;49.822;6.754;2023-04-06T03:56:55;-1.13;94.93
65460;DHT22;52058;49.822;6.754;2023-04-06T03:59:22;-1.15;94.74
65460;DHT22;52058;49.822;6.754;2023-04-06T04:01:49;-1.18;94.86
65460;DHT22;52058;49.822;6.754;2023-04-06T04:04:16;-1.15;94.65
65460;DHT22;52058;49.822;6.754;2023-04-06T04:06:42;-1.12;94.58
65460;DHT22;52058;49.822;6.754;2023-04-06T04:09:09;-1.16;94.74
65460;DHT22;52058;49.822;6.754;2023-04-06T04:11:36;-1.25;94.85
65460;DHT22;52058;49.822;6.754;2023-04-06T04:14:04;-1.24;94.96
65460;DHT22;52058;49.822;6.754;2023-04-06T04:16:30;-1.19;95.10
65460;DHT22;52058;49.822;6.754;2023-04-06T04:18:57;-1.16;94.83
65460;DHT22;52058;49.822;6.754;2023-04-06T04:21:24;-1.18;94.77
65460;DHT22;52058;49.822;6.754;2023-04-06T04:23:51;-1.15;94.68
65460;DHT22;52058;49.822;6.754;2023-04-06T04:26:18;-1.18;94.54
65460;DHT22;52058;49.822;6.754;2023-04-06T04:28:45;-1.26;94.89
65460;DHT22;52058;49.822;6.754;2023-04-06T04:31:13;-1.20;94.86
65460;DHT22;52058;49.822;6.754;2023-04-06T04:33:40;-1.22;94.89
65460;DHT22;52058;49.822;6.754;2023-04-06T04:36:07;-1.12;94.68
65460;DHT22;52058;49.822;6.754;2023-04-06T04:38:35;-1.05;94.48
65460;DHT22;52058;49.822;6.754;2023-04-06T04:41:01;-1.06;94.43
65460;DHT22;52058;49.822;6.754;2023-04-06T04:43:28;-1.04;94.13
65460;DHT22;52058;49.822;6.754;2023-04-06T04:45:55;-1.12;94.19
65460;DHT22;52058;49.822;6.754;2023-04-06T04:48:23;-1.16;94.29
65460;DHT22;52058;49.822;6.754;2023-04-06T04:50:49;-0.97;94.10
65460;DHT22;52058;49.822;6.754;2023-04-06T04:53:16;-0.95;93.90
65460;DHT22;52058;49.822;6.754;2023-04-06T04:55:42;-0.94;93.94
65460;DHT22;52058;49.822;6.754;2023-04-06T04:58:09;-0.98;93.93
65460;DHT22;52058;49.822;6.754;2023-04-06T05:00:39;-0.89;93.84
65460;DHT22;52058;49.822;6.754;2023-04-06T05:03:06;-0.87;93.91
65460;DHT22;52058;49.822;6.754;2023-04-06T05:05:34;-0.89;93.67
65460;DHT22;52058;49.822;6.754;2023-04-06T05:08:01;-0.83;93.53
65460;DHT22;52058;49.822;6.754;2023-04-06T05:10:28;-0.78;93.31
65460;DHT22;52058;49.822;6.754;2023-04-06T05:12:54;-0.70;93.33
65460;DHT22;52058;49.822;6.754;2023-04-06T05:15:21;-0.66;93.12
65460;DHT22;52058;49.822;6.754;2023-04-06T05:17:47;-0.54;92.84
65460;DHT22;52058;49.822;6.754;2023-04-06T05:20:14;-0.46;92.50
65460;DHT22;52058;49.822;6.754;2023-04-06T05:22:42;-0.30;92.33
65460;DHT22;52058;49.822;6.754;2023-04-06T05:25:09;-0.23;92.09
65460;DHT22;52058;49.822;6.754;2023-04-06T05:27:35;-0.09;91.94
65460;DHT22;52058;49.822;6.754;2023-04-06T05:30:02;-0.01;91.37
65460;DHT22;52058;49.822;6.754;2023-04-06T05:32:29;0.04;90.88
65460;DHT22;52058;49.822;6.754;2023-04-06T05:34:56;0.12;91.11
65460;DHT22;52058;49.822;6.754;2023-04-06T05:37:22;0.21;90.90
65460;DHT22;52058;49.822;6.754;2023-04-06T05:39:50;0.38;90.28
65460;DHT22;52058;49.822;6.754;2023-04-06T05:42:17;0.50;90.04
65460;DHT22;52058;49.822;6.754;2023-04-06T05:44:43;0.69;89.85
65460;DHT22;52058;49.822;6.754;2023-04-06T05:47:10;0.73;89.25
65460;DHT22;52058;49.822;6.754;2023-04-06T05:49:36;0.73;88.96
65460;DHT22;52058;49.822;6.754;2023-04-06T05:52:03;0.93;88.82
65460;DHT22;52058;49.822;6.754;2023-04-06T05:54:30;1.05;88.54
65460;DHT22;52058;49.822;6.754;2023-04-06T05:56:58;1.09;88.39
65460;DHT22;52058;49.822;6.754;2023-04-06T05:59:25;1.20;88.30
65460;DHT22;52058;49.822;6.754;2023-04-06T06:01:51;1.32;88.24
65460;DHT22;52058;49.822;6.754;2023-04-06T06:04:18;1.39;88.02
65460;DHT22;52058;49.822;6.754;2023-04-06T06:06:44;1.66;87.75
65460;DHT22;52058;49.822;6.754;2023-04-06T06:09:11;1.63;87.42
65460;DHT22;52058;49.822;6.754;2023-04-06T06:11:37;1.79;87.20
65460;DHT22;52058;49.822;6.754;2023-04-06T06:14:05;1.81;87.26
65460;DHT22;52058;49.822;6.754;2023-04-06T06:16:32;1.94;87.64
65460;DHT22;52058;49.822;6.754;2023-04-06T06:18:59;2.00;87.80
65460;DHT22;52058;49.822;6.754;2023-04-06T06:21:25;2.03;87.60
65460;DHT22;52058;49.822;6.754;2023-04-06T06:23:52;2.07;87.78
65460;DHT22;52058;49.822;6.754;2023-04-06T06:26:19;2.21;87.41
65460;DHT22;52058;49.822;6.754;2023-04-06T06:28:47;2.17;86.09
65460;DHT22;52058;49.822;6.754;2023-04-06T06:31:15;2.22;85.86
65460;DHT22;52058;49.822;6.754;2023-04-06T06:33:42;2.24;85.60
65460;DHT22;52058;49.822;6.754;2023-04-06T06:36:08;2.34;85.63
65460;DHT22;52058;49.822;6.754;2023-04-06T06:38:35;2.31;85.71
65460;DHT22;52058;49.822;6.754;2023-04-06T06:41:02;2.45;85.78
65460;DHT22;52058;49.822;6.754;2023-04-06T06:43:28;2.55;85.94
65460;DHT22;52058;49.822;6.754;2023-04-06T06:45:55;2.52;86.25
65460;DHT22;52058;49.822;6.754;2023-04-06T06:48:23;2.62;85.60
65460;DHT22;52058;49.822;6.754;2023-04-06T06:50:49;2.68;85.63
65460;DHT22;52058;49.822;6.754;2023-04-06T06:53:16;2.66;85.36
65460;DHT22;52058;49.822;6.754;2023-04-06T06:55:42;2.76;84.85
65460;DHT22;52058;49.822;6.754;2023-04-06T06:58:10;2.88;84.95
65460;DHT22;52058;49.822;6.754;2023-04-06T07:00:37;3.04;84.27
65460;DHT22;52058;49.822;6.754;2023-04-06T07:03:03;3.24;83.50
65460;DHT22;52058;49.822;6.754;2023-04-06T07:05:31;3.45;83.02
65460;DHT22;52058;49.822;6.754;2023-04-06T07:07:58;3.57;82.51
65460;DHT22;52058;49.822;6.754;2023-04-06T07:10:25;3.86;82.17
65460;DHT22;52058;49.822;6.754;2023-04-06T07:12:52;3.99;81.65
65460;DHT22;52058;49.822;6.754;2023-04-06T07:15:18;4.07;81.77
65460;DHT22;52058;49.822;6.754;2023-04-06T07:17:45;4.19;81.72
65460;DHT22;52058;49.822;6.754;2023-04-06T07:20:12;4.46;80.37
65460;DHT22;52058;49.822;6.754;2023-04-06T07:22:42;4.46;80.06
65460;DHT22;52058;49.822;6.754;2023-04-06T07:25:09;4.50;80.76
65460;DHT22;52058;49.822;6.754;2023-04-06T07:29:24;4.54;79.74
65460;DHT22;52058;49.822;6.754;2023-04-06T07:31:07;4.75;79.84
65460;DHT22;52058;49.822;6.754;2023-04-06T07:33:34;4.71;79.04
65460;DHT22;52058;49.822;6.754;2023-04-06T07:36:00;4.77;79.56
65460;DHT22;52058;49.822;6.754;2023-04-06T07:38:28;4.88;79.32
65460;DHT22;52058;49.822;6.754;2023-04-06T07:40:55;4.98;79.62
65460;DHT22;52058;49.822;6.754;2023-04-06T07:43:21;4.98;79.69
65460;DHT22;52058;49.822;6.754;2023-04-06T07:45:48;5.00;78.07
65460;DHT22;52058;49.822;6.754;2023-04-06T07:48:14;5.02;79.35
65460;DHT22;52058;49.822;6.754;2023-04-06T07:50:41;5.13;78.64
65460;DHT22;52058;49.822;6.754;2023-04-06T07:53:08;5.22;77.77
65460;DHT22;52058;49.822;6.754;2023-04-06T07:55:36;5.36;77.97
65460;DHT22;52058;49.822;6.754;2023-04-06T07:58:02;5.35;74.42
65460;DHT22;52058;49.822;6.754;2023-04-06T08:00:29;5.33;73.78
65460;DHT22;52058;49.822;6.754;2023-04-06T08:02:56;5.40;73.53
65460;DHT22;52058;49.822;6.754;2023-04-06T08:05:22;5.50;73.49
65460;DHT22;52058;49.822;6.754;2023-04-06T08:07:49;5.66;73.62
65460;DHT22;52058;49.822;6.754;2023-04-06T08:10:15;5.68;73.54
65460;DHT22;52058;49.822;6.754;2023-04-06T08:12:43;5.75;72.60
65460;DHT22;52058;49.822;6.754;2023-04-06T08:15:10;5.83;72.09
65460;DHT22;52058;49.822;6.754;2023-04-06T08:17:37;6.01;73.35
65460;DHT22;52058;49.822;6.754;2023-04-06T08:20:04;6.12;73.33
65460;DHT22;52058;49.822;6.754;2023-04-06T08:22:30;6.29;73.23
65460;DHT22;52058;49.822;6.754;2023-04-06T08:24:57;6.37;73.67
65460;DHT22;52058;49.822;6.754;2023-04-06T08:27:23;6.54;73.90
65460;DHT22;52058;49.822;6.754;2023-04-06T08:29:57;6.80;73.46
65460;DHT22;52058;49.822;6.754;2023-04-06T08:32:24;6.93;74.26
65460;DHT22;52058;49.822;6.754;2023-04-06T08:34:53;7.16;72.17
65460;DHT22;52058;49.822;6.754;2023-04-06T08:37:20;7.43;72.81
65460;DHT22;52058;49.822;6.754;2023-04-06T08:39:46;7.69;70.85
65460;DHT22;52058;49.822;6.754;2023-04-06T08:42:18;8.05;70.01
65460;DHT22;52058;49.822;6.754;2023-04-06T08:44:46;8.27;69.32
65460;DHT22;52058;49.822;6.754;2023-04-06T08:47:14;8.41;68.76
65460;DHT22;52058;49.822;6.754;2023-04-06T08:49:42;8.49;68.02
65460;DHT22;52058;49.822;6.754;2023-04-06T08:52:10;8.72;67.63
65460;DHT22;52058;49.822;6.754;2023-04-06T08:54:37;8.62;66.59
65460;DHT22;52058;49.822;6.754;2023-04-06T08:57:04;8.90;66.24
65460;DHT22;52058;49.822;6.754;2023-04-06T08:59:32;8.83;65.07
65460;DHT22;52058;49.822;6.754;2023-04-06T09:02:00;9.30;64.62
65460;DHT22;52058;49.822;6.754;2023-04-06T09:04:29;9.50;65.37
65460;DHT22;52058;49.822;6.754;2023-04-06T09:06:56;9.65;63.76
65460;DHT22;52058;49.822;6.754;2023-04-06T09:09:22;9.48;62.30
65460;DHT22;52058;49.822;6.754;2023-04-06T09:11:51;9.79;62.12
65460;DHT22;52058;49.822;6.754;2023-04-06T09:14:33;10.10;62.04
65460;DHT22;52058;49.822;6.754;2023-04-06T09:16:59;9.96;61.07
65460;DHT22;52058;49.822;6.754;2023-04-06T09:19:26;10.10;60.43
65460;DHT22;52058;49.822;6.754;2023-04-06T09:22:02;10.06;60.79
65460;DHT22;52058;49.822;6.754;2023-04-06T09:24:39;10.32;60.53
65460;DHT22;52058;49.822;6.754;2023-04-06T09:27:06;10.43;60.89
65460;DHT22;52058;49.822;6.754;2023-04-06T09:29:32;10.54;59.74
65460;DHT22;52058;49.822;6.754;2023-04-06T09:32:04;10.75;60.11
65460;DHT22;52058;49.822;6.754;2023-04-06T09:34:31;10.78;59.24
65460;DHT22;52058;49.822;6.754;2023-04-06T09:36:58;10.78;59.13
65460;DHT22;52058;49.822;6.754;2023-04-06T09:39:26;10.74;59.55
65460;DHT22;52058;49.822;6.754;2023-04-06T09:41:53;10.97;59.43
65460;DHT22;52058;49.822;6.754;2023-04-06T09:44:21;10.85;59.31
65460;DHT22;52058;49.822;6.754;2023-04-06T09:46:51;11.15;59.06
65460;DHT22;52058;49.822;6.754;2023-04-06T09:49:19;11.39;58.51
65460;DHT22;52058;49.822;6.754;2023-04-06T09:51:51;11.73;59.33
65460;DHT22;52058;49.822;6.754;2023-04-06T09:54:21;11.78;55.49
65460;DHT22;52058;49.822;6.754;2023-04-06T09:56:55;11.73;55.58
65460;DHT22;52058;49.822;6.754;2023-04-06T09:59:28;11.74;55.25
65460;DHT22;52058;49.822;6.754;2023-04-06T10:01:58;11.84;55.64
65460;DHT22;52058;49.822;6.754;2023-04-06T10:04:33;11.80;55.19
65460;DHT22;52058;49.822;6.754;2023-04-06T10:07:02;12.17;53.97
65460;DHT22;52058;49.822;6.754;2023-04-06T10:09:29;12.15;55.34
65460;DHT22;52058;49.822;6.754;2023-04-06T10:12:03;12.31;53.53
65460;DHT22;52058;49.822;6.754;2023-04-06T10:14:32;12.29;54.44
65460;DHT22;52058;49.822;6.754;2023-04-06T10:16:59;12.35;53.41
65460;DHT22;52058;49.822;6.754;2023-04-06T10:19:32;12.59;55.00
65460;DHT22;52058;49.822;6.754;2023-04-06T10:22:02;12.76;51.36
65460;DHT22;52058;49.822;6.754;2023-04-06T10:24:29;12.70;52.55
65460;DHT22;52058;49.822;6.754;2023-04-06T10:27:00;12.73;52.71
65460;DHT22;52058;49.822;6.754;2023-04-06T10:29:41;12.86;51.75
65460;DHT22;52058;49.822;6.754;2023-04-06T10:32:08;12.90;51.67
65460;DHT22;52058;49.822;6.754;2023-04-06T10:34:35;12.99;51.88
65460;DHT22;52058;49.822;6.754;2023-04-06T10:37:10;13.17;51.95
65460;DHT22;52058;49.822;6.754;2023-04-06T10:39:45;13.27;51.74
65460;DHT22;52058;49.822;6.754;2023-04-06T10:42:13;13.25;51.14
65460;DHT22;52058;49.822;6.754;2023-04-06T10:44:43;13.59;50.87
65460;DHT22;52058;49.822;6.754;2023-04-06T10:47:16;13.98;50.75
65460;DHT22;52058;49.822;6.754;2023-04-06T10:49:43;13.86;51.37
65460;DHT22;52058;49.822;6.754;2023-04-06T10:52:10;14.12;50.02
65460;DHT22;52058;49.822;6.754;2023-04-06T10:54:41;13.87;49.57
65460;DHT22;52058;49.822;6.754;2023-04-06T10:57:08;13.54;50.61
65460;DHT22;52058;49.822;6.754;2023-04-06T10:59:35;13.61;50.63
65460;DHT22;52058;49.822;6.754;2023-04-06T11:02:03;13.68;49.45
65460;DHT22;52058;49.822;6.754;2023-04-06T11:04:29;13.66;50.29
65460;DHT22;52058;49.822;6.754;2023-04-06T11:06:56;13.76;49.34
65460;DHT22;52058;49.822;6.754;2023-04-06T11:09:24;13.50;50.37
65460;DHT22;52058;49.822;6.754;2023-04-06T11:11:51;12.93;50.72
65460;DHT22;52058;49.822;6.754;2023-04-06T11:14:18;13.06;51.58
65460;DHT22;52058;49.822;6.754;2023-04-06T11:16:46;13.42;52.20
65460;DHT22;52058;49.822;6.754;2023-04-06T11:19:15;13.27;51.24
65460;DHT22;52058;49.822;6.754;2023-04-06T11:21:43;13.44;51.01
65460;DHT22;52058;49.822;6.754;2023-04-06T11:24:13;13.51;50.62
65460;DHT22;52058;49.822;6.754;2023-04-06T11:26:41;13.61;51.00
65460;DHT22;52058;49.822;6.754;2023-04-06T11:29:09;13.86;51.93
65460;DHT22;52058;49.822;6.754;2023-04-06T11:31:44;13.55;51.38
65460;DHT22;52058;49.822;6.754;2023-04-06T11:34:12;13.71;51.49
65460;DHT22;52058;49.822;6.754;2023-04-06T11:36:42;13.79;51.39
65460;DHT22;52058;49.822;6.754;2023-04-06T11:39:09;13.61;51.78
65460;DHT22;52058;49.822;6.754;2023-04-06T11:41:36;13.25;52.52
65460;DHT22;52058;49.822;6.754;2023-04-06T11:44:03;13.20;52.10
65460;DHT22;52058;49.822;6.754;2023-04-06T11:46:30;13.63;52.46
65460;DHT22;52058;49.822;6.754;2023-04-06T11:48:58;13.66;52.63
65460;DHT22;52058;49.822;6.754;2023-04-06T11:51:25;13.69;51.70
65460;DHT22;52058;49.822;6.754;2023-04-06T11:53:54;13.40;52.08
65460;DHT22;52058;49.822;6.754;2023-04-06T11:56:25;13.85;52.15
65460;DHT22;52058;49.822;6.754;2023-04-06T11:58:52;13.92;52.06
65460;DHT22;52058;49.822;6.754;2023-04-06T12:01:19;14.03;52.46
65460;DHT22;52058;49.822;6.754;2023-04-06T12:03:45;13.78;52.20
65460;DHT22;52058;49.822;6.754;2023-04-06T12:06:12;13.71;53.29
65460;DHT22;52058;49.822;6.754;2023-04-06T12:08:38;13.79;52.41
65460;DHT22;52058;49.822;6.754;2023-04-06T12:11:07;13.89;52.98
65460;DHT22;52058;49.822;6.754;2023-04-06T12:13:33;13.31;52.86
65460;DHT22;52058;49.822;6.754;2023-04-06T12:16:00;13.47;52.77
65460;DHT22;52058;49.822;6.754;2023-04-06T12:18:26;13.23;53.24
65460;DHT22;52058;49.822;6.754;2023-04-06T12:20:53;13.07;53.41
65460;DHT22;52058;49.822;6.754;2023-04-06T12:23:19;13.23;54.03
65460;DHT22;52058;49.822;6.754;2023-04-06T12:25:46;13.28;53.65
65460;DHT22;52058;49.822;6.754;2023-04-06T12:28:14;12.92;54.05
65460;DHT22;52058;49.822;6.754;2023-04-06T12:30:41;13.07;54.58
65460;DHT22;52058;49.822;6.754;2023-04-06T12:33:07;13.14;54.58
65460;DHT22;52058;49.822;6.754;2023-04-06T12:35:34;13.45;54.61
65460;DHT22;52058;49.822;6.754;2023-04-06T12:38:00;13.25;55.18
65460;DHT22;52058;49.822;6.754;2023-04-06T12:40:28;13.10;55.38
65460;DHT22;52058;49.822;6.754;2023-04-06T12:42:55;13.08;55.34
65460;DHT22;52058;49.822;6.754;2023-04-06T12:45:23;13.07;56.08
65460;DHT22;52058;49.822;6.754;2023-04-06T12:47:50;12.84;56.42
65460;DHT22;52058;49.822;6.754;2023-04-06T12:50:17;12.83;56.93
65460;DHT22;52058;49.822;6.754;2023-04-06T12:52:43;12.73;57.22
65460;DHT22;52058;49.822;6.754;2023-04-06T12:55:10;12.79;56.47
65460;DHT22;52058;49.822;6.754;2023-04-06T12:57:37;12.86;56.55
65460;DHT22;52058;49.822;6.754;2023-04-06T13:00:04;12.77;57.55
65460;DHT22;52058;49.822;6.754;2023-04-06T13:02:32;12.65;57.75
65460;DHT22;52058;49.822;6.754;2023-04-06T13:04:59;12.45;57.69
65460;DHT22;52058;49.822;6.754;2023-04-06T13:07:26;12.29;58.59
65460;DHT22;52058;49.822;6.754;2023-04-06T13:09:52;12.05;59.91
65460;DHT22;52058;49.822;6.754;2023-04-06T13:12:19;11.95;61.17
65460;DHT22;52058;49.822;6.754;2023-04-06T13:14:45;11.88;61.67
65460;DHT22;52058;49.822;6.754;2023-04-06T13:17:16;11.99;62.38
65460;DHT22;52058;49.822;6.754;2023-04-06T13:19:44;11.98;62.47
65460;DHT22;52058;49.822;6.754;2023-04-06T13:22:10;11.71;63.39
65460;DHT22;52058;49.822;6.754;2023-04-06T13:24:37;11.42;65.25
65460;DHT22;52058;49.822;6.754;2023-04-06T13:27:03;11.37;65.87
65460;DHT22;52058;49.822;6.754;2023-04-06T13:29:30;11.42;67.12
65460;DHT22;52058;49.822;6.754;2023-04-06T13:31:57;11.19;67.29
65460;DHT22;52058;49.822;6.754;2023-04-06T13:34:23;11.02;69.01
65460;DHT22;52058;49.822;6.754;2023-04-06T13:36:51;10.88;69.46
65460;DHT22;52058;49.822;6.754;2023-04-06T13:39:18;11.15;70.59
65460;DHT22;52058;49.822;6.754;2023-04-06T13:41:44;11.29;71.05
65460;DHT22;52058;49.822;6.754;2023-04-06T13:44:11;11.70;71.72
65460;DHT22;52058;49.822;6.754;2023-04-06T13:46:38;12.05;70.49
65460;DHT22;52058;49.822;6.754;2023-04-06T13:49:05;12.24;69.25
65460;DHT22;52058;49.822;6.754;2023-04-06T13:51:31;12.15;68.19
65460;DHT22;52058;49.822;6.754;2023-04-06T13:53:59;12.01;68.41
65460;DHT22;52058;49.822;6.754;2023-04-06T13:56:26;12.10;67.99
65460;DHT22;52058;49.822;6.754;2023-04-06T13:58:53;12.02;68.53
65460;DHT22;52058;49.822;6.754;2023-04-06T14:01:21;11.91;69.48
65460;DHT22;52058;49.822;6.754;2023-04-06T14:03:48;11.71;68.71
65460;DHT22;52058;49.822;6.754;2023-04-06T14:06:15;11.46;71.20
65460;DHT22;52058;49.822;6.754;2023-04-06T14:08:41;11.52;72.43
65460;DHT22;52058;49.822;6.754;2023-04-06T14:11:12;11.28;72.25
65460;DHT22;52058;49.822;6.754;2023-04-06T14:13:39;10.92;74.87
65460;DHT22;52058;49.822;6.754;2023-04-06T14:16:06;10.61;77.22
65460;DHT22;52058;49.822;6.754;2023-04-06T14:18:33;10.70;77.05
65460;DHT22;52058;49.822;6.754;2023-04-06T14:21:00;10.54;78.54
65460;DHT22;52058;49.822;6.754;2023-04-06T14:23:27;10.43;77.89
65460;DHT22;52058;49.822;6.754;2023-04-06T14:26:01;10.26;79.30
65460;DHT22;52058;49.822;6.754;2023-04-06T14:28:30;10.23;80.00
65460;DHT22;52058;49.822;6.754;2023-04-06T14:30:56;10.32;80.50
65460;DHT22;52058;49.822;6.754;2023-04-06T14:33:23;10.37;80.80
65460;DHT22;52058;49.822;6.754;2023-04-06T14:35:49;10.43;80.19
65460;DHT22;52058;49.822;6.754;2023-04-06T14:38:16;10.56;80.98
65460;DHT22;52058;49.822;6.754;2023-04-06T14:40:43;10.72;80.68
65460;DHT22;52058;49.822;6.754;2023-04-06T14:43:09;10.71;82.05
65460;DHT22;52058;49.822;6.754;2023-04-06T14:45:37;10.70;80.19
65460;DHT22;52058;49.822;6.754;2023-04-06T14:48:04;10.51;81.05
65460;DHT22;52058;49.822;6.754;2023-04-06T14:50:32;10.54;83.04
65460;DHT22;52058;49.822;6.754;2023-04-06T14:52:59;10.43;83.72
65460;DHT22;52058;49.822;6.754;2023-04-06T14:55:26;10.39;84.52
65460;DHT22;52058;49.822;6.754;2023-04-06T14:57:52;10.29;85.69
65460;DHT22;52058;49.822;6.754;2023-04-06T15:00:19;10.06;84.17
65460;DHT22;52058;49.822;6.754;2023-04-06T15:02:47;10.09;86.19
65460;DHT22;52058;49.822;6.754;2023-04-06T15:05:14;9.99;86.52
65460;DHT22;52058;49.822;6.754;2023-04-06T15:07:41;9.88;86.95
65460;DHT22;52058;49.822;6.754;2023-04-06T15:10:09;9.78;88.75
65460;DHT22;52058;49.822;6.754;2023-04-06T15:12:35;9.61;87.24
65460;DHT22;52058;49.822;6.754;2023-04-06T15:15:02;9.69;88.37
65460;DHT22;52058;49.822;6.754;2023-04-06T15:17:30;9.75;88.98
65460;DHT22;52058;49.822;6.754;2023-04-06T15:19:58;9.83;88.68
65460;DHT22;52058;49.822;6.754;2023-04-06T15:22:25;9.72;86.33
65460;DHT22;52058;49.822;6.754;2023-04-06T15:24:51;9.71;87.31
65460;DHT22;52058;49.822;6.754;2023-04-06T15:27:18;9.62;87.21
65460;DHT22;52058;49.822;6.754;2023-04-06T15:29:44;9.58;88.60
65460;DHT22;52058;49.822;6.754;2023-04-06T15:32:11;9.65;88.50
65460;DHT22;52058;49.822;6.754;2023-04-06T15:34:38;9.63;88.83
65460;DHT22;52058;49.822;6.754;2023-04-06T15:37:06;9.52;88.67